RJNH(METAR)
12/11 18:00
METAR RJNH 110900Z 07005KT 9999 -RA FEW020 SCT030 BKN050 09/05 Q1022
RMK 1CU020 4SC030 6SC050 A3020=
戻る
トップページへ戻る
IMOC Co,.Ltd.